sensor_id;sensor_type;location;lat;lon;timestamp;temperature;humidity
4813;DHT22;2420;51.202;8.698;2022-07-12T00:02:01;14.70;1.00
4813;DHT22;2420;51.202;8.698;2022-07-12T00:04:26;14.70;1.00
4813;DHT22;2420;51.202;8.698;2022-07-12T00:06:52;14.60;1.00
4813;DHT22;2420;51.202;8.698;2022-07-12T00:09:17;14.60;1.00
4813;DHT22;2420;51.202;8.698;2022-07-12T00:11:43;14.60;1.00
4813;DHT22;2420;51.202;8.698;2022-07-12T00:14:09;14.50;1.00
4813;DHT22;2420;51.202;8.698;2022-07-12T00:16:37;14.40;1.00
4813;DHT22;2420;51.202;8.698;2022-07-12T00:19:03;14.50;1.00
4813;DHT22;2420;51.202;8.698;2022-07-12T00:21:28;14.40;1.00
4813;DHT22;2420;51.202;8.698;2022-07-12T00:23:54;14.50;1.00
4813;DHT22;2420;51.202;8.698;2022-07-12T00:26:20;14.50;1.00
4813;DHT22;2420;51.202;8.698;2022-07-12T00:28:46;14.40;1.00
4813;DHT22;2420;51.202;8.698;2022-07-12T00:31:11;14.30;1.00
4813;DHT22;2420;51.202;8.698;2022-07-12T00:33:37;14.30;1.00
4813;DHT22;2420;51.202;8.698;2022-07-12T00:36:03;14.30;1.00
4813;DHT22;2420;51.202;8.698;2022-07-12T00:38:29;14.20;1.00
4813;DHT22;2420;51.202;8.698;2022-07-12T00:40:54;14.10;1.00
4813;DHT22;2420;51.202;8.698;2022-07-12T00:43:20;14.00;1.00
4813;DHT22;2420;51.202;8.698;2022-07-12T00:45:45;14.00;1.00
4813;DHT22;2420;51.202;8.698;2022-07-12T00:48:11;14.00;1.00
4813;DHT22;2420;51.202;8.698;2022-07-12T00:50:37;14.00;1.00
4813;DHT22;2420;51.202;8.698;2022-07-12T00:53:03;13.90;1.00
4813;DHT22;2420;51.202;8.698;2022-07-12T00:55:29;13.90;1.00
4813;DHT22;2420;51.202;8.698;2022-07-12T00:57:54;13.80;1.00
4813;DHT22;2420;51.202;8.698;2022-07-12T01:00:25;13.70;1.00
4813;DHT22;2420;51.202;8.698;2022-07-12T01:02:52;13.60;1.00
4813;DHT22;2420;51.202;8.698;2022-07-12T01:05:19;13.60;1.00
4813;DHT22;2420;51.202;8.698;2022-07-12T01:07:45;13.50;1.00
4813;DHT22;2420;51.202;8.698;2022-07-12T01:10:11;13.50;1.00
4813;DHT22;2420;51.202;8.698;2022-07-12T01:12:37;13.40;1.00
4813;DHT22;2420;51.202;8.698;2022-07-12T01:15:05;13.30;1.00
4813;DHT22;2420;51.202;8.698;2022-07-12T01:17:31;13.30;1.00
4813;DHT22;2420;51.202;8.698;2022-07-12T01:19:58;13.30;1.00
4813;DHT22;2420;51.202;8.698;2022-07-12T01:22:32;13.30;1.00
4813;DHT22;2420;51.202;8.698;2022-07-12T01:25:00;13.30;1.00
4813;DHT22;2420;51.202;8.698;2022-07-12T01:27:26;13.30;1.00
4813;DHT22;2420;51.202;8.698;2022-07-12T01:29:52;13.20;1.00
4813;DHT22;2420;51.202;8.698;2022-07-12T01:32:18;13.30;1.00
4813;DHT22;2420;51.202;8.698;2022-07-12T01:37:17;13.20;1.00
4813;DHT22;2420;51.202;8.698;2022-07-12T01:39:49;13.20;1.00
4813;DHT22;2420;51.202;8.698;2022-07-12T01:42:15;13.20;1.00
4813;DHT22;2420;51.202;8.698;2022-07-12T01:44:41;13.10;1.00
4813;DHT22;2420;51.202;8.698;2022-07-12T01:47:07;13.10;1.00
4813;DHT22;2420;51.202;8.698;2022-07-12T01:49:32;13.00;1.00
4813;DHT22;2420;51.202;8.698;2022-07-12T01:51:58;13.00;1.00
4813;DHT22;2420;51.202;8.698;2022-07-12T01:54:27;13.00;1.00
4813;DHT22;2420;51.202;8.698;2022-07-12T01:56:52;13.00;1.00
4813;DHT22;2420;51.202;8.698;2022-07-12T01:59:19;13.00;1.00
4813;DHT22;2420;51.202;8.698;2022-07-12T02:01:45;13.10;1.00
4813;DHT22;2420;51.202;8.698;2022-07-12T02:04:11;13.00;1.00
4813;DHT22;2420;51.202;8.698;2022-07-12T02:06:38;13.00;1.00
4813;DHT22;2420;51.202;8.698;2022-07-12T02:09:04;12.90;1.00
4813;DHT22;2420;51.202;8.698;2022-07-12T02:11:30;12.90;1.00
4813;DHT22;2420;51.202;8.698;2022-07-12T02:13:56;12.90;1.00
4813;DHT22;2420;51.202;8.698;2022-07-12T02:16:22;12.80;1.00
4813;DHT22;2420;51.202;8.698;2022-07-12T02:18:47;12.70;1.00
4813;DHT22;2420;51.202;8.698;2022-07-12T02:21:13;12.70;1.00
4813;DHT22;2420;51.202;8.698;2022-07-12T02:23:38;12.50;1.00
4813;DHT22;2420;51.202;8.698;2022-07-12T02:26:04;12.50;1.00
4813;DHT22;2420;51.202;8.698;2022-07-12T02:28:29;12.50;1.00
4813;DHT22;2420;51.202;8.698;2022-07-12T02:30:56;12.50;1.00
4813;DHT22;2420;51.202;8.698;2022-07-12T02:33:23;12.50;1.00
4813;DHT22;2420;51.202;8.698;2022-07-12T02:35:48;12.60;1.00
4813;DHT22;2420;51.202;8.698;2022-07-12T02:38:14;12.60;1.00
4813;DHT22;2420;51.202;8.698;2022-07-12T02:40:39;12.50;1.00
4813;DHT22;2420;51.202;8.698;2022-07-12T02:43:38;12.60;1.00
4813;DHT22;2420;51.202;8.698;2022-07-12T02:46:04;12.60;1.00
4813;DHT22;2420;51.202;8.698;2022-07-12T02:48:30;12.60;1.00
4813;DHT22;2420;51.202;8.698;2022-07-12T02:50:56;12.60;1.00
4813;DHT22;2420;51.202;8.698;2022-07-12T02:53:21;12.50;1.00
4813;DHT22;2420;51.202;8.698;2022-07-12T02:55:47;12.50;1.00
4813;DHT22;2420;51.202;8.698;2022-07-12T02:58:14;12.60;1.00
4813;DHT22;2420;51.202;8.698;2022-07-12T03:00:39;12.60;1.00
4813;DHT22;2420;51.202;8.698;2022-07-12T03:03:05;12.60;1.00
4813;DHT22;2420;51.202;8.698;2022-07-12T03:05:33;12.70;1.00
4813;DHT22;2420;51.202;8.698;2022-07-12T03:08:00;12.70;1.00
4813;DHT22;2420;51.202;8.698;2022-07-12T03:10:25;12.70;1.00
4813;DHT22;2420;51.202;8.698;2022-07-12T03:12:51;12.80;1.00
4813;DHT22;2420;51.202;8.698;2022-07-12T03:15:16;12.90;1.00
4813;DHT22;2420;51.202;8.698;2022-07-12T03:17:42;12.90;1.00
4813;DHT22;2420;51.202;8.698;2022-07-12T03:20:08;12.90;1.00
4813;DHT22;2420;51.202;8.698;2022-07-12T03:22:37;12.90;1.00
4813;DHT22;2420;51.202;8.698;2022-07-12T03:25:03;12.80;1.00
4813;DHT22;2420;51.202;8.698;2022-07-12T03:27:29;12.80;1.00
4813;DHT22;2420;51.202;8.698;2022-07-12T03:29:56;12.80;1.00
4813;DHT22;2420;51.202;8.698;2022-07-12T03:32:23;12.80;1.00
4813;DHT22;2420;51.202;8.698;2022-07-12T03:34:48;12.80;1.00
4813;DHT22;2420;51.202;8.698;2022-07-12T03:37:14;12.80;1.00
4813;DHT22;2420;51.202;8.698;2022-07-12T03:39:39;12.70;1.00
4813;DHT22;2420;51.202;8.698;2022-07-12T03:42:05;12.60;1.00
4813;DHT22;2420;51.202;8.698;2022-07-12T03:44:30;12.60;1.00
4813;DHT22;2420;51.202;8.698;2022-07-12T03:46:56;12.50;1.00
4813;DHT22;2420;51.202;8.698;2022-07-12T03:49:21;12.50;1.00
4813;DHT22;2420;51.202;8.698;2022-07-12T03:51:47;12.60;1.00
4813;DHT22;2420;51.202;8.698;2022-07-12T03:54:12;12.50;1.00
4813;DHT22;2420;51.202;8.698;2022-07-12T03:56:38;12.50;1.00
4813;DHT22;2420;51.202;8.698;2022-07-12T03:59:22;12.40;1.00
4813;DHT22;2420;51.202;8.698;2022-07-12T04:01:47;12.40;1.00
4813;DHT22;2420;51.202;8.698;2022-07-12T04:04:13;12.40;1.00
4813;DHT22;2420;51.202;8.698;2022-07-12T04:06:38;12.50;1.00
4813;DHT22;2420;51.202;8.698;2022-07-12T04:09:05;12.50;1.00
4813;DHT22;2420;51.202;8.698;2022-07-12T04:11:31;12.50;1.00
4813;DHT22;2420;51.202;8.698;2022-07-12T04:13:57;12.50;1.00
4813;DHT22;2420;51.202;8.698;2022-07-12T04:16:22;12.60;1.00
4813;DHT22;2420;51.202;8.698;2022-07-12T04:18:48;12.60;1.00
4813;DHT22;2420;51.202;8.698;2022-07-12T04:21:13;12.60;1.00
4813;DHT22;2420;51.202;8.698;2022-07-12T04:23:39;12.60;1.00
4813;DHT22;2420;51.202;8.698;2022-07-12T04:26:04;12.60;1.00
4813;DHT22;2420;51.202;8.698;2022-07-12T04:28:30;12.60;1.00
4813;DHT22;2420;51.202;8.698;2022-07-12T04:30:57;12.50;1.00
4813;DHT22;2420;51.202;8.698;2022-07-12T04:33:22;12.50;1.00
4813;DHT22;2420;51.202;8.698;2022-07-12T04:35:48;12.60;1.00
4813;DHT22;2420;51.202;8.698;2022-07-12T04:38:13;12.60;1.00
4813;DHT22;2420;51.202;8.698;2022-07-12T04:40:39;12.70;1.00
4813;DHT22;2420;51.202;8.698;2022-07-12T04:43:05;12.70;1.00
4813;DHT22;2420;51.202;8.698;2022-07-12T04:45:30;12.70;1.00
4813;DHT22;2420;51.202;8.698;2022-07-12T04:47:56;12.80;1.00
4813;DHT22;2420;51.202;8.698;2022-07-12T04:50:21;12.80;1.00
4813;DHT22;2420;51.202;8.698;2022-07-12T04:52:47;12.90;1.00
4813;DHT22;2420;51.202;8.698;2022-07-12T04:55:12;12.90;1.00
4813;DHT22;2420;51.202;8.698;2022-07-12T04:57:38;12.90;1.00
4813;DHT22;2420;51.202;8.698;2022-07-12T05:00:05;13.00;1.00
4813;DHT22;2420;51.202;8.698;2022-07-12T05:02:32;13.10;1.00
4813;DHT22;2420;51.202;8.698;2022-07-12T05:04:58;13.20;1.00
4813;DHT22;2420;51.202;8.698;2022-07-12T05:07:24;13.30;1.00
4813;DHT22;2420;51.202;8.698;2022-07-12T05:09:49;13.30;1.00
4813;DHT22;2420;51.202;8.698;2022-07-12T05:12:16;13.50;1.00
4813;DHT22;2420;51.202;8.698;2022-07-12T05:14:42;13.50;1.00
4813;DHT22;2420;51.202;8.698;2022-07-12T05:17:07;13.70;1.00
4813;DHT22;2420;51.202;8.698;2022-07-12T05:19:33;13.90;1.00
4813;DHT22;2420;51.202;8.698;2022-07-12T05:21:58;13.90;1.00
4813;DHT22;2420;51.202;8.698;2022-07-12T05:24:24;14.00;1.00
4813;DHT22;2420;51.202;8.698;2022-07-12T05:26:49;14.10;1.00
4813;DHT22;2420;51.202;8.698;2022-07-12T05:29:15;14.20;1.00
4813;DHT22;2420;51.202;8.698;2022-07-12T05:31:41;14.20;1.00
4813;DHT22;2420;51.202;8.698;2022-07-12T05:34:06;14.30;1.00
4813;DHT22;2420;51.202;8.698;2022-07-12T05:36:32;14.40;1.00
4813;DHT22;2420;51.202;8.698;2022-07-12T05:38:57;14.40;1.00
4813;DHT22;2420;51.202;8.698;2022-07-12T05:41:23;14.50;1.00
4813;DHT22;2420;51.202;8.698;2022-07-12T05:43:49;14.60;1.00
4813;DHT22;2420;51.202;8.698;2022-07-12T05:46:14;14.60;1.00
4813;DHT22;2420;51.202;8.698;2022-07-12T05:48:39;14.70;1.00
4813;DHT22;2420;51.202;8.698;2022-07-12T05:51:05;14.80;1.00
4813;DHT22;2420;51.202;8.698;2022-07-12T05:53:49;14.90;1.00
4813;DHT22;2420;51.202;8.698;2022-07-12T05:56:15;15.10;1.00
4813;DHT22;2420;51.202;8.698;2022-07-12T05:58:40;15.20;1.00
4813;DHT22;2420;51.202;8.698;2022-07-12T06:01:06;15.40;1.00
4813;DHT22;2420;51.202;8.698;2022-07-12T06:03:32;15.50;1.00
4813;DHT22;2420;51.202;8.698;2022-07-12T06:05:59;16.00;1.00
4813;DHT22;2420;51.202;8.698;2022-07-12T06:08:24;16.60;1.00
4813;DHT22;2420;51.202;8.698;2022-07-12T06:10:50;17.20;1.00
4813;DHT22;2420;51.202;8.698;2022-07-12T06:13:15;17.30;1.00
4813;DHT22;2420;51.202;8.698;2022-07-12T06:15:41;17.30;1.00
4813;DHT22;2420;51.202;8.698;2022-07-12T06:18:06;17.20;1.00
4813;DHT22;2420;51.202;8.698;2022-07-12T06:20:32;17.20;1.00
4813;DHT22;2420;51.202;8.698;2022-07-12T06:22:58;17.20;1.00
4813;DHT22;2420;51.202;8.698;2022-07-12T06:25:23;17.40;1.00
4813;DHT22;2420;51.202;8.698;2022-07-12T06:27:49;17.40;1.00
4813;DHT22;2420;51.202;8.698;2022-07-12T06:30:20;17.40;1.00
4813;DHT22;2420;51.202;8.698;2022-07-12T06:32:46;17.50;1.00
4813;DHT22;2420;51.202;8.698;2022-07-12T06:35:12;17.30;1.00
4813;DHT22;2420;51.202;8.698;2022-07-12T06:37:38;17.30;1.00
4813;DHT22;2420;51.202;8.698;2022-07-12T06:40:04;17.30;1.00
4813;DHT22;2420;51.202;8.698;2022-07-12T06:42:30;17.30;1.00
4813;DHT22;2420;51.202;8.698;2022-07-12T06:44:56;17.40;1.00
4813;DHT22;2420;51.202;8.698;2022-07-12T06:47:22;17.80;1.00
4813;DHT22;2420;51.202;8.698;2022-07-12T06:49:47;18.10;1.00
4813;DHT22;2420;51.202;8.698;2022-07-12T06:52:13;18.20;1.00
4813;DHT22;2420;51.202;8.698;2022-07-12T06:54:38;18.30;1.00
4813;DHT22;2420;51.202;8.698;2022-07-12T06:57:04;18.50;1.00
4813;DHT22;2420;51.202;8.698;2022-07-12T06:59:30;18.60;1.00
4813;DHT22;2420;51.202;8.698;2022-07-12T07:01:55;18.60;1.00
4813;DHT22;2420;51.202;8.698;2022-07-12T07:04:23;18.70;1.00
4813;DHT22;2420;51.202;8.698;2022-07-12T07:06:48;18.90;1.00
4813;DHT22;2420;51.202;8.698;2022-07-12T07:09:14;19.00;1.00
4813;DHT22;2420;51.202;8.698;2022-07-12T07:11:40;19.00;1.00
4813;DHT22;2420;51.202;8.698;2022-07-12T07:14:06;18.90;1.00
4813;DHT22;2420;51.202;8.698;2022-07-12T07:16:32;18.80;1.00
4813;DHT22;2420;51.202;8.698;2022-07-12T07:18:58;18.80;1.00
4813;DHT22;2420;51.202;8.698;2022-07-12T07:21:23;18.80;1.00
4813;DHT22;2420;51.202;8.698;2022-07-12T07:23:50;18.80;1.00
4813;DHT22;2420;51.202;8.698;2022-07-12T07:26:16;18.90;1.00
4813;DHT22;2420;51.202;8.698;2022-07-12T07:28:41;18.80;1.00
4813;DHT22;2420;51.202;8.698;2022-07-12T07:31:25;19.00;1.00
4813;DHT22;2420;51.202;8.698;2022-07-12T07:33:51;18.90;1.00
4813;DHT22;2420;51.202;8.698;2022-07-12T07:36:16;19.00;1.00
4813;DHT22;2420;51.202;8.698;2022-07-12T07:38:42;19.00;1.00
4813;DHT22;2420;51.202;8.698;2022-07-12T07:41:08;19.30;1.00
4813;DHT22;2420;51.202;8.698;2022-07-12T07:43:33;19.60;1.00
4813;DHT22;2420;51.202;8.698;2022-07-12T07:45:59;19.80;1.00
4813;DHT22;2420;51.202;8.698;2022-07-12T07:48:27;20.00;1.00
4813;DHT22;2420;51.202;8.698;2022-07-12T07:50:53;19.90;1.00
4813;DHT22;2420;51.202;8.698;2022-07-12T07:53:18;20.00;1.00
4813;DHT22;2420;51.202;8.698;2022-07-12T07:55:44;20.00;1.00
4813;DHT22;2420;51.202;8.698;2022-07-12T07:58:09;20.20;1.00
4813;DHT22;2420;51.202;8.698;2022-07-12T08:00:35;20.30;1.00
4813;DHT22;2420;51.202;8.698;2022-07-12T08:03:00;20.30;1.00
4813;DHT22;2420;51.202;8.698;2022-07-12T08:05:26;20.60;1.00
4813;DHT22;2420;51.202;8.698;2022-07-12T08:07:52;20.80;1.00
4813;DHT22;2420;51.202;8.698;2022-07-12T08:10:17;20.90;1.00
4813;DHT22;2420;51.202;8.698;2022-07-12T08:12:43;21.10;1.00
4813;DHT22;2420;51.202;8.698;2022-07-12T08:15:09;21.30;1.00
4813;DHT22;2420;51.202;8.698;2022-07-12T08:17:35;21.60;1.00
4813;DHT22;2420;51.202;8.698;2022-07-12T08:20:03;21.80;1.00
4813;DHT22;2420;51.202;8.698;2022-07-12T08:22:28;22.30;1.00
4813;DHT22;2420;51.202;8.698;2022-07-12T08:24:54;22.60;1.00
4813;DHT22;2420;51.202;8.698;2022-07-12T08:27:19;22.80;1.00
4813;DHT22;2420;51.202;8.698;2022-07-12T08:29:45;22.80;1.00
4813;DHT22;2420;51.202;8.698;2022-07-12T08:32:10;22.90;1.00
4813;DHT22;2420;51.202;8.698;2022-07-12T08:34:36;22.70;1.00
4813;DHT22;2420;51.202;8.698;2022-07-12T08:37:02;22.60;1.00
4813;DHT22;2420;51.202;8.698;2022-07-12T08:39:28;22.70;1.00
4813;DHT22;2420;51.202;8.698;2022-07-12T08:41:53;23.00;1.00
4813;DHT22;2420;51.202;8.698;2022-07-12T08:44:19;23.20;1.00
4813;DHT22;2420;51.202;8.698;2022-07-12T08:46:44;23.50;1.00
4813;DHT22;2420;51.202;8.698;2022-07-12T08:49:12;23.50;1.00
4813;DHT22;2420;51.202;8.698;2022-07-12T08:51:38;23.40;1.00
4813;DHT22;2420;51.202;8.698;2022-07-12T08:54:11;23.40;1.00
4813;DHT22;2420;51.202;8.698;2022-07-12T08:56:44;23.10;1.00
4813;DHT22;2420;51.202;8.698;2022-07-12T08:59:20;23.10;1.00
4813;DHT22;2420;51.202;8.698;2022-07-12T09:01:51;23.20;1.00
4813;DHT22;2420;51.202;8.698;2022-07-12T09:04:21;23.50;1.00
4813;DHT22;2420;51.202;8.698;2022-07-12T09:06:47;23.80;1.00
4813;DHT22;2420;51.202;8.698;2022-07-12T09:09:29;24.10;1.00
4813;DHT22;2420;51.202;8.698;2022-07-12T09:11:55;24.40;1.00
4813;DHT22;2420;51.202;8.698;2022-07-12T09:14:21;24.50;1.00
4813;DHT22;2420;51.202;8.698;2022-07-12T09:17:07;24.30;1.00
4813;DHT22;2420;51.202;8.698;2022-07-12T09:19:38;24.40;1.00
4813;DHT22;2420;51.202;8.698;2022-07-12T09:22:05;24.60;1.00
4813;DHT22;2420;51.202;8.698;2022-07-12T09:24:38;24.60;1.00
4813;DHT22;2420;51.202;8.698;2022-07-12T09:27:04;24.60;1.00
4813;DHT22;2420;51.202;8.698;2022-07-12T09:29:31;24.70;1.00
4813;DHT22;2420;51.202;8.698;2022-07-12T09:31:58;25.00;1.00
4813;DHT22;2420;51.202;8.698;2022-07-12T09:34:56;25.30;1.00
4813;DHT22;2420;51.202;8.698;2022-07-12T09:37:40;25.50;1.00
4813;DHT22;2420;51.202;8.698;2022-07-12T09:40:08;25.60;1.00
4813;DHT22;2420;51.202;8.698;2022-07-12T09:42:34;25.70;1.00
4813;DHT22;2420;51.202;8.698;2022-07-12T09:45:00;25.60;1.00
4813;DHT22;2420;51.202;8.698;2022-07-12T09:47:26;25.60;1.00
4813;DHT22;2420;51.202;8.698;2022-07-12T09:49:53;25.40;1.00
4813;DHT22;2420;51.202;8.698;2022-07-12T09:52:23;25.60;1.00
4813;DHT22;2420;51.202;8.698;2022-07-12T09:54:50;25.60;1.00
4813;DHT22;2420;51.202;8.698;2022-07-12T09:57:23;25.70;1.00
4813;DHT22;2420;51.202;8.698;2022-07-12T09:59:50;25.70;1.00
4813;DHT22;2420;51.202;8.698;2022-07-12T10:02:18;25.50;1.00
4813;DHT22;2420;51.202;8.698;2022-07-12T10:04:45;25.80;1.00
4813;DHT22;2420;51.202;8.698;2022-07-12T10:07:11;25.70;1.00
4813;DHT22;2420;51.202;8.698;2022-07-12T10:09:40;25.90;1.00
4813;DHT22;2420;51.202;8.698;2022-07-12T10:12:08;25.50;1.00
4813;DHT22;2420;51.202;8.698;2022-07-12T10:14:36;25.30;1.00
4813;DHT22;2420;51.202;8.698;2022-07-12T10:17:02;25.30;1.00
4813;DHT22;2420;51.202;8.698;2022-07-12T10:19:30;25.60;1.00
4813;DHT22;2420;51.202;8.698;2022-07-12T10:21:59;25.70;1.00
4813;DHT22;2420;51.202;8.698;2022-07-12T10:29:47;26.10;1.00
4813;DHT22;2420;51.202;8.698;2022-07-12T10:32:32;26.00;1.00
4813;DHT22;2420;51.202;8.698;2022-07-12T10:35:06;26.30;1.00
4813;DHT22;2420;51.202;8.698;2022-07-12T10:37:34;26.70;1.00
4813;DHT22;2420;51.202;8.698;2022-07-12T10:45:30;27.10;1.00
4813;DHT22;2420;51.202;8.698;2022-07-12T10:47:57;26.90;1.00
4813;DHT22;2420;51.202;8.698;2022-07-12T10:53:31;27.30;1.00
4813;DHT22;2420;51.202;8.698;2022-07-12T11:01:02;27.80;1.00
4813;DHT22;2420;51.202;8.698;2022-07-12T11:03:48;27.80;1.00
4813;DHT22;2420;51.202;8.698;2022-07-12T11:06:19;27.70;1.00
4813;DHT22;2420;51.202;8.698;2022-07-12T11:08:52;27.40;1.00
4813;DHT22;2420;51.202;8.698;2022-07-12T11:11:18;27.60;1.00
4813;DHT22;2420;51.202;8.698;2022-07-12T11:13:44;27.70;1.00
4813;DHT22;2420;51.202;8.698;2022-07-12T11:16:10;27.70;1.00
4813;DHT22;2420;51.202;8.698;2022-07-12T11:18:36;27.80;1.00
4813;DHT22;2420;51.202;8.698;2022-07-12T11:21:03;27.90;1.00
4813;DHT22;2420;51.202;8.698;2022-07-12T11:23:30;27.40;1.00
4813;DHT22;2420;51.202;8.698;2022-07-12T11:25:56;27.20;1.00
4813;DHT22;2420;51.202;8.698;2022-07-12T11:28:27;27.10;1.00
4813;DHT22;2420;51.202;8.698;2022-07-12T11:30:54;27.20;1.00
4813;DHT22;2420;51.202;8.698;2022-07-12T11:33:26;27.50;1.00
4813;DHT22;2420;51.202;8.698;2022-07-12T11:35:55;27.70;1.00
4813;DHT22;2420;51.202;8.698;2022-07-12T11:38:28;28.00;1.00
4813;DHT22;2420;51.202;8.698;2022-07-12T11:40:55;28.30;1.00
4813;DHT22;2420;51.202;8.698;2022-07-12T11:43:22;28.60;1.00
4813;DHT22;2420;51.202;8.698;2022-07-12T11:45:48;28.70;1.00
4813;DHT22;2420;51.202;8.698;2022-07-12T11:48:14;28.90;1.00
4813;DHT22;2420;51.202;8.698;2022-07-12T11:50:42;28.50;1.00
4813;DHT22;2420;51.202;8.698;2022-07-12T11:53:23;28.80;1.00
4813;DHT22;2420;51.202;8.698;2022-07-12T11:55:54;28.80;1.00
4813;DHT22;2420;51.202;8.698;2022-07-12T11:58:24;28.90;1.00
4813;DHT22;2420;51.202;8.698;2022-07-12T12:00:50;29.20;1.00
4813;DHT22;2420;51.202;8.698;2022-07-12T12:03:17;29.40;1.00
4813;DHT22;2420;51.202;8.698;2022-07-12T12:05:48;29.60;1.00
4813;DHT22;2420;51.202;8.698;2022-07-12T12:08:14;29.50;1.00
4813;DHT22;2420;51.202;8.698;2022-07-12T12:10:41;29.30;1.00
4813;DHT22;2420;51.202;8.698;2022-07-12T12:13:14;29.10;1.00
4813;DHT22;2420;51.202;8.698;2022-07-12T12:15:47;28.70;1.00
4813;DHT22;2420;51.202;8.698;2022-07-12T12:18:13;29.00;1.00
4813;DHT22;2420;51.202;8.698;2022-07-12T12:20:40;29.20;1.00
4813;DHT22;2420;51.202;8.698;2022-07-12T12:23:18;29.10;1.00
4813;DHT22;2420;51.202;8.698;2022-07-12T12:25:44;29.30;1.00
4813;DHT22;2420;51.202;8.698;2022-07-12T12:28:11;29.50;1.00
4813;DHT22;2420;51.202;8.698;2022-07-12T12:30:54;29.60;1.00
4813;DHT22;2420;51.202;8.698;2022-07-12T12:33:37;29.20;1.00
4813;DHT22;2420;51.202;8.698;2022-07-12T12:37:00;28.90;1.00
4813;DHT22;2420;51.202;8.698;2022-07-12T12:38:59;28.50;1.00
4813;DHT22;2420;51.202;8.698;2022-07-12T12:41:29;28.50;1.00
4813;DHT22;2420;51.202;8.698;2022-07-12T12:43:59;28.80;1.00
4813;DHT22;2420;51.202;8.698;2022-07-12T12:46:53;29.20;1.00
4813;DHT22;2420;51.202;8.698;2022-07-12T12:49:50;29.50;1.00
4813;DHT22;2420;51.202;8.698;2022-07-12T12:52:17;29.30;1.00
4813;DHT22;2420;51.202;8.698;2022-07-12T12:54:43;29.40;1.00
4813;DHT22;2420;51.202;8.698;2022-07-12T12:57:09;29.50;1.00
4813;DHT22;2420;51.202;8.698;2022-07-12T12:59:36;29.40;1.00
4813;DHT22;2420;51.202;8.698;2022-07-12T13:02:03;29.60;1.00
4813;DHT22;2420;51.202;8.698;2022-07-12T13:04:29;29.80;1.00
4813;DHT22;2420;51.202;8.698;2022-07-12T13:06:56;29.60;1.00
4813;DHT22;2420;51.202;8.698;2022-07-12T13:09:21;29.40;1.00
4813;DHT22;2420;51.202;8.698;2022-07-12T13:11:48;29.00;1.00
4813;DHT22;2420;51.202;8.698;2022-07-12T13:14:13;29.00;1.00
4813;DHT22;2420;51.202;8.698;2022-07-12T13:16:39;29.20;1.00
4813;DHT22;2420;51.202;8.698;2022-07-12T13:19:05;29.00;1.00
4813;DHT22;2420;51.202;8.698;2022-07-12T13:21:31;29.10;1.00
4813;DHT22;2420;51.202;8.698;2022-07-12T13:23:56;29.10;1.00
4813;DHT22;2420;51.202;8.698;2022-07-12T13:26:22;29.20;1.00
4813;DHT22;2420;51.202;8.698;2022-07-12T13:28:47;29.60;1.00
4813;DHT22;2420;51.202;8.698;2022-07-12T13:31:13;29.80;1.00
4813;DHT22;2420;51.202;8.698;2022-07-12T13:33:39;30.10;1.00
4813;DHT22;2420;51.202;8.698;2022-07-12T13:36:04;30.50;1.00
4813;DHT22;2420;51.202;8.698;2022-07-12T13:38:30;30.50;1.00
4813;DHT22;2420;51.202;8.698;2022-07-12T13:40:55;30.70;1.00
4813;DHT22;2420;51.202;8.698;2022-07-12T13:43:21;30.70;1.00
4813;DHT22;2420;51.202;8.698;2022-07-12T13:45:49;30.50;1.00
4813;DHT22;2420;51.202;8.698;2022-07-12T13:48:15;30.30;1.00
4813;DHT22;2420;51.202;8.698;2022-07-12T13:50:41;30.20;1.00
4813;DHT22;2420;51.202;8.698;2022-07-12T13:53:06;29.90;1.00
4813;DHT22;2420;51.202;8.698;2022-07-12T13:55:33;30.10;1.00
4813;DHT22;2420;51.202;8.698;2022-07-12T13:57:58;30.20;1.00
4813;DHT22;2420;51.202;8.698;2022-07-12T14:00:25;30.20;1.00
4813;DHT22;2420;51.202;8.698;2022-07-12T14:02:50;30.30;1.00
4813;DHT22;2420;51.202;8.698;2022-07-12T14:05:16;30.30;1.00
4813;DHT22;2420;51.202;8.698;2022-07-12T14:07:43;30.40;1.00
4813;DHT22;2420;51.202;8.698;2022-07-12T14:10:10;30.50;1.00
4813;DHT22;2420;51.202;8.698;2022-07-12T14:12:36;30.50;1.00
4813;DHT22;2420;51.202;8.698;2022-07-12T14:15:02;30.10;1.00
4813;DHT22;2420;51.202;8.698;2022-07-12T14:17:43;29.90;1.00
4813;DHT22;2420;51.202;8.698;2022-07-12T14:20:14;29.90;1.00
4813;DHT22;2420;51.202;8.698;2022-07-12T14:22:40;30.10;1.00
4813;DHT22;2420;51.202;8.698;2022-07-12T14:25:07;30.20;1.00
4813;DHT22;2420;51.202;8.698;2022-07-12T14:27:34;29.90;1.00
4813;DHT22;2420;51.202;8.698;2022-07-12T14:30:00;30.00;1.00
4813;DHT22;2420;51.202;8.698;2022-07-12T14:32:25;30.10;1.00
4813;DHT22;2420;51.202;8.698;2022-07-12T14:34:51;30.00;1.00
4813;DHT22;2420;51.202;8.698;2022-07-12T14:37:16;29.70;1.00
4813;DHT22;2420;51.202;8.698;2022-07-12T14:39:42;29.90;1.00
4813;DHT22;2420;51.202;8.698;2022-07-12T14:42:08;29.70;1.00
4813;DHT22;2420;51.202;8.698;2022-07-12T14:44:34;29.70;1.00
4813;DHT22;2420;51.202;8.698;2022-07-12T14:46:59;29.60;1.00
4813;DHT22;2420;51.202;8.698;2022-07-12T14:49:25;29.80;1.00
4813;DHT22;2420;51.202;8.698;2022-07-12T14:51:50;29.60;1.00
4813;DHT22;2420;51.202;8.698;2022-07-12T14:54:16;29.60;1.00
4813;DHT22;2420;51.202;8.698;2022-07-12T14:56:42;29.60;1.00
4813;DHT22;2420;51.202;8.698;2022-07-12T14:59:08;29.50;1.00
4813;DHT22;2420;51.202;8.698;2022-07-12T15:01:34;29.40;1.00
4813;DHT22;2420;51.202;8.698;2022-07-12T15:03:59;29.30;1.00
4813;DHT22;2420;51.202;8.698;2022-07-12T15:06:25;29.00;1.00
4813;DHT22;2420;51.202;8.698;2022-07-12T15:08:53;29.00;1.00
4813;DHT22;2420;51.202;8.698;2022-07-12T15:11:19;28.90;1.00
4813;DHT22;2420;51.202;8.698;2022-07-12T15:13:44;28.90;1.00
4813;DHT22;2420;51.202;8.698;2022-07-12T15:16:10;28.90;1.00
4813;DHT22;2420;51.202;8.698;2022-07-12T15:18:36;28.90;1.00
4813;DHT22;2420;51.202;8.698;2022-07-12T15:21:02;28.80;1.00
4813;DHT22;2420;51.202;8.698;2022-07-12T15:23:28;28.90;1.00
4813;DHT22;2420;51.202;8.698;2022-07-12T15:25:54;28.80;1.00
4813;DHT22;2420;51.202;8.698;2022-07-12T15:28:20;28.70;1.00
4813;DHT22;2420;51.202;8.698;2022-07-12T15:30:47;28.50;1.00
4813;DHT22;2420;51.202;8.698;2022-07-12T15:33:13;28.30;1.00
4813;DHT22;2420;51.202;8.698;2022-07-12T15:35:38;28.10;1.00
4813;DHT22;2420;51.202;8.698;2022-07-12T15:38:04;28.10;1.00
4813;DHT22;2420;51.202;8.698;2022-07-12T15:40:31;28.10;1.00
4813;DHT22;2420;51.202;8.698;2022-07-12T15:42:57;28.00;1.00
4813;DHT22;2420;51.202;8.698;2022-07-12T15:45:22;28.00;1.00
4813;DHT22;2420;51.202;8.698;2022-07-12T15:47:48;28.10;1.00
4813;DHT22;2420;51.202;8.698;2022-07-12T15:50:13;28.20;1.00
4813;DHT22;2420;51.202;8.698;2022-07-12T15:52:39;28.30;1.00
4813;DHT22;2420;51.202;8.698;2022-07-12T15:55:23;28.30;1.00
4813;DHT22;2420;51.202;8.698;2022-07-12T15:57:50;28.30;1.00
4813;DHT22;2420;51.202;8.698;2022-07-12T16:00:15;28.30;1.00
4813;DHT22;2420;51.202;8.698;2022-07-12T16:02:41;28.30;1.00
4813;DHT22;2420;51.202;8.698;2022-07-12T16:05:07;28.10;1.00
4813;DHT22;2420;51.202;8.698;2022-07-12T16:07:32;28.10;1.00
4813;DHT22;2420;51.202;8.698;2022-07-12T16:10:04;28.10;1.00
4813;DHT22;2420;51.202;8.698;2022-07-12T16:12:30;28.00;1.00
4813;DHT22;2420;51.202;8.698;2022-07-12T16:14:56;27.90;1.00
4813;DHT22;2420;51.202;8.698;2022-07-12T16:17:21;27.80;1.00
4813;DHT22;2420;51.202;8.698;2022-07-12T16:19:47;27.80;1.00
4813;DHT22;2420;51.202;8.698;2022-07-12T16:22:12;27.70;1.00
4813;DHT22;2420;51.202;8.698;2022-07-12T16:24:38;27.70;1.00
4813;DHT22;2420;51.202;8.698;2022-07-12T16:27:04;27.60;1.00
4813;DHT22;2420;51.202;8.698;2022-07-12T16:29:29;27.40;1.00
4813;DHT22;2420;51.202;8.698;2022-07-12T16:31:58;27.30;1.00
4813;DHT22;2420;51.202;8.698;2022-07-12T16:34:24;27.20;1.00
4813;DHT22;2420;51.202;8.698;2022-07-12T16:36:49;27.10;1.00
4813;DHT22;2420;51.202;8.698;2022-07-12T16:39:15;27.00;1.00